createdAt,value
2017-09-19T00:00:01.135Z,99.90
2017-09-19T00:02:28.905Z,99.90
2017-09-19T00:04:57.446Z,99.90
2017-09-19T00:07:25.244Z,99.90
2017-09-19T00:09:53.791Z,99.90
2017-09-19T00:12:21.619Z,99.90
2017-09-19T00:14:49.379Z,99.90
2017-09-19T00:17:17.915Z,99.90
2017-09-19T00:19:45.715Z,99.90
2017-09-19T00:22:13.492Z,99.90
2017-09-19T00:24:41.325Z,99.90
2017-09-19T00:27:09.866Z,99.90
2017-09-19T00:29:37.637Z,99.90
2017-09-19T00:32:05.434Z,99.90
2017-09-19T00:34:33.196Z,99.90
2017-09-19T00:37:01.014Z,99.90
2017-09-19T00:39:28.791Z,99.90
2017-09-19T00:41:56.559Z,99.90
2017-09-19T00:44:25.119Z,99.90
2017-09-19T00:46:52.895Z,99.90
2017-09-19T00:49:20.719Z,99.90
2017-09-19T00:51:48.505Z,99.90
2017-09-19T00:54:16.266Z,99.90
2017-09-19T00:56:44.076Z,99.90
2017-09-19T00:59:11.861Z,99.90
2017-09-19T01:01:39.690Z,99.90
2017-09-19T01:04:08.226Z,99.90
2017-09-19T01:06:35.993Z,99.90
2017-09-19T01:09:03.806Z,99.90
2017-09-19T01:11:31.570Z,99.90
2017-09-19T01:13:59.400Z,99.90
2017-09-19T01:16:27.930Z,99.90
2017-09-19T01:18:55.713Z,99.90
2017-09-19T01:21:23.525Z,99.90
2017-09-19T01:23:52.050Z,99.90
2017-09-19T01:26:19.892Z,99.90
2017-09-19T01:28:47.648Z,99.90
2017-09-19T01:31:15.423Z,99.90
2017-09-19T01:33:43.215Z,99.90
2017-09-19T01:36:10.995Z,99.90
2017-09-19T01:38:38.813Z,99.90
2017-09-19T01:41:06.588Z,99.90
2017-09-19T01:43:34.349Z,99.90
2017-09-19T01:46:02.143Z,99.90
2017-09-19T01:48:30.675Z,99.90
2017-09-19T01:50:58.489Z,99.90
2017-09-19T01:53:26.251Z,99.90
2017-09-19T01:55:54.016Z,99.90
2017-09-19T01:58:22.570Z,99.90
2017-09-19T02:00:50.330Z,99.90
2017-09-19T02:03:18.143Z,99.90
2017-09-19T02:05:45.905Z,99.90
2017-09-19T02:08:13.663Z,99.90
2017-09-19T02:10:41.451Z,99.90
2017-09-19T02:13:09.207Z,99.90
2017-09-19T02:15:37.021Z,99.90
2017-09-19T02:18:04.770Z,99.90
2017-09-19T02:20:32.521Z,99.90
2017-09-19T02:23:00.302Z,99.90
2017-09-19T02:25:28.055Z,99.90
2017-09-19T02:27:56.223Z,99.90
2017-09-19T02:30:23.979Z,99.90
2017-09-19T02:32:51.731Z,99.90
2017-09-19T02:35:19.515Z,99.90
2017-09-19T02:37:47.265Z,99.90
2017-09-19T02:40:15.078Z,99.90
2017-09-19T02:42:42.853Z,99.90
2017-09-19T02:45:10.603Z,99.90
2017-09-19T02:47:38.385Z,99.90
2017-09-19T02:50:06.136Z,99.90
2017-09-19T02:52:33.939Z,99.90
2017-09-19T02:55:01.689Z,99.90
2017-09-19T02:57:29.444Z,99.90
2017-09-19T02:59:57.247Z,99.90
2017-09-19T03:02:25.783Z,99.90
2017-09-19T03:04:53.591Z,99.90
2017-09-19T03:07:22.106Z,99.90
2017-09-19T03:09:49.857Z,99.90
2017-09-19T03:12:17.643Z,99.90
2017-09-19T03:14:45.395Z,99.90
2017-09-19T03:17:13.202Z,99.90
2017-09-19T03:19:40.952Z,99.90
2017-09-19T03:22:08.699Z,99.90
2017-09-19T03:24:36.474Z,99.90
2017-09-19T03:27:04.223Z,99.90
2017-09-19T03:29:32.027Z,99.90
2017-09-19T03:32:00.539Z,99.90
2017-09-19T03:34:28.286Z,99.90
2017-09-19T03:36:56.066Z,99.90
2017-09-19T03:39:23.810Z,99.90
2017-09-19T03:41:51.622Z,99.90
2017-09-19T03:44:19.370Z,99.90
2017-09-19T03:46:47.459Z,99.90
2017-09-19T03:49:15.237Z,99.90
2017-09-19T03:51:42.986Z,99.90
2017-09-19T03:54:10.795Z,99.90
2017-09-19T03:56:38.538Z,99.90
2017-09-19T04:01:40.680Z,99.90
2017-09-19T04:04:08.436Z,99.90
2017-09-19T04:06:36.246Z,99.90
2017-09-19T04:09:04.041Z,99.90
2017-09-19T04:11:31.835Z,99.90
2017-09-19T04:13:59.607Z,99.90
2017-09-19T04:16:27.353Z,99.90
2017-09-19T04:18:55.258Z,99.90
2017-09-19T04:21:23.774Z,99.90
2017-09-19T04:23:51.527Z,99.90
2017-09-19T04:26:19.323Z,99.90
2017-09-19T04:28:47.085Z,99.90
2017-09-19T04:31:14.903Z,99.90
2017-09-19T04:33:42.668Z,99.90
2017-09-19T04:36:10.414Z,99.90
2017-09-19T04:38:38.196Z,99.90
2017-09-19T04:41:05.942Z,99.90
2017-09-19T04:43:34.510Z,99.90
2017-09-19T04:46:03.024Z,99.90
2017-09-19T04:48:30.771Z,99.90
2017-09-19T04:50:58.554Z,99.90
2017-09-19T04:53:26.307Z,99.90
2017-09-19T04:55:54.114Z,99.90
2017-09-19T04:58:21.875Z,99.90
2017-09-19T05:00:49.614Z,99.90
2017-09-19T05:03:17.401Z,99.90
2017-09-19T05:05:45.148Z,99.90
2017-09-19T05:08:12.969Z,99.90
2017-09-19T05:10:40.721Z,99.90
2017-09-19T05:13:08.519Z,99.90
2017-09-19T05:15:36.305Z,99.90
2017-09-19T05:18:04.079Z,99.90
2017-09-19T05:20:32.690Z,99.90
2017-09-19T05:23:00.460Z,99.90
2017-09-19T05:25:28.235Z,99.90
2017-09-19T05:27:56.044Z,99.90
2017-09-19T05:30:23.825Z,99.90
2017-09-19T05:32:51.677Z,99.90
2017-09-19T05:35:20.211Z,87.80
2017-09-19T05:40:30.039Z,78.50
2017-09-19T05:42:57.808Z,90.70
2017-09-19T05:45:25.639Z,70.20
2017-09-19T05:47:54.181Z,55.20
2017-09-19T05:50:21.955Z,55.70
2017-09-19T05:52:49.759Z,45.80
2017-09-19T05:55:17.528Z,46.40
2017-09-19T05:57:45.352Z,46.90
2017-09-19T06:00:13.125Z,43.80
2017-09-19T06:02:41.654Z,37.20
2017-09-19T06:05:09.467Z,37.20
2017-09-19T06:07:38.048Z,36.30
2017-09-19T06:10:06.625Z,34.40
2017-09-19T06:12:35.177Z,33.90
2017-09-19T06:15:03.286Z,33.90
2017-09-19T06:17:31.850Z,29.30
2017-09-19T06:19:59.683Z,29.30
2017-09-19T06:22:27.940Z,29.50
2017-09-19T06:24:58.862Z,29.50
2017-09-19T06:27:27.181Z,28.40
2017-09-19T06:29:56.128Z,24.90
2017-09-19T06:32:24.087Z,25.20
2017-09-19T06:34:54.229Z,24.30
2017-09-19T06:37:22.985Z,23.50
2017-09-19T06:39:50.840Z,24.10
2017-09-19T06:42:18.661Z,24.60
2017-09-19T06:44:46.440Z,24.80
2017-09-19T06:47:15.111Z,24.20
2017-09-19T06:49:42.919Z,24.20
2017-09-19T06:52:10.785Z,22.80
2017-09-19T06:54:38.661Z,22.60
2017-09-19T06:57:07.434Z,22.30
2017-09-19T06:59:35.351Z,22.30
2017-09-19T07:02:04.957Z,21.10
2017-09-19T07:04:33.555Z,22.10
2017-09-19T07:07:01.813Z,22.00
2017-09-19T07:09:29.595Z,20.80
2017-09-19T07:11:58.208Z,23.30
2017-09-19T07:14:26.066Z,23.30
2017-09-19T07:16:53.984Z,22.20
2017-09-19T07:19:21.803Z,22.00
2017-09-19T07:21:49.612Z,21.90
2017-09-19T07:24:17.417Z,23.40
2017-09-19T07:26:45.224Z,23.50
2017-09-19T07:29:17.466Z,23.20
2017-09-19T07:31:45.774Z,23.00
2017-09-19T07:34:14.253Z,23.30
2017-09-19T07:36:42.827Z,22.90
2017-09-19T07:39:11.004Z,22.90
2017-09-19T07:41:39.793Z,24.30
2017-09-19T07:44:07.580Z,23.60
2017-09-19T07:46:36.216Z,23.20
2017-09-19T07:49:04.045Z,23.00
2017-09-19T07:54:04.232Z,21.00
2017-09-19T07:56:32.044Z,21.30
2017-09-19T07:58:59.904Z,21.70
2017-09-19T08:01:27.684Z,22.30
2017-09-19T08:03:55.460Z,24.30
2017-09-19T08:06:23.268Z,21.60
2017-09-19T08:08:51.821Z,23.80
2017-09-19T08:11:19.659Z,23.80
2017-09-19T08:13:47.468Z,22.90
2017-09-19T08:16:16.032Z,22.10
2017-09-19T08:18:48.283Z,22.00
2017-09-19T08:21:17.287Z,22.20
2017-09-19T08:23:45.159Z,22.30
2017-09-19T08:26:13.730Z,22.40
2017-09-19T08:28:41.504Z,22.30
2017-09-19T08:31:09.380Z,22.30
2017-09-19T08:36:09.207Z,22.90
2017-09-19T08:38:37.756Z,23.50
2017-09-19T08:41:05.542Z,23.60
2017-09-19T08:43:34.132Z,24.40
2017-09-19T08:46:02.677Z,25.20
2017-09-19T08:48:30.504Z,25.20
2017-09-19T08:50:58.296Z,26.10
2017-09-19T08:53:26.065Z,24.50
2017-09-19T08:55:53.860Z,23.90
2017-09-19T08:58:22.400Z,25.90
2017-09-19T09:00:50.239Z,25.90
2017-09-19T09:03:18.008Z,26.80
2017-09-19T09:05:45.784Z,26.60
2017-09-19T09:08:13.579Z,26.10
2017-09-19T09:10:41.356Z,27.60
2017-09-19T09:13:09.953Z,26.70
2017-09-19T09:15:37.723Z,26.70
2017-09-19T09:18:05.501Z,27.80
2017-09-19T09:20:33.307Z,29.70
2017-09-19T09:23:01.101Z,30.00
2017-09-19T09:25:28.938Z,30.00
2017-09-19T09:27:57.472Z,33.60
2017-09-19T09:30:25.240Z,33.50
2017-09-19T09:32:53.036Z,35.30
2017-09-19T09:35:20.810Z,36.20
2017-09-19T09:37:49.412Z,35.20
2017-09-19T09:40:17.177Z,35.20
2017-09-19T09:42:44.968Z,33.10
2017-09-19T09:45:12.768Z,34.20
2017-09-19T09:47:40.533Z,36.40
2017-09-19T09:50:08.360Z,37.90
2017-09-19T09:52:36.123Z,36.60
2017-09-19T09:55:03.892Z,36.10
2017-09-19T09:57:31.714Z,35.90
2017-09-19T09:59:59.476Z,37.30
2017-09-19T10:02:27.298Z,35.50
2017-09-19T10:04:55.059Z,36.10
2017-09-19T10:07:22.832Z,35.60
2017-09-19T10:09:50.627Z,35.40
2017-09-19T10:12:18.393Z,35.60
2017-09-19T10:14:46.220Z,35.80
2017-09-19T10:17:14.755Z,34.80
2017-09-19T10:19:42.518Z,34.80
2017-09-19T10:22:10.312Z,35.50
2017-09-19T10:24:38.080Z,35.60
2017-09-19T10:27:06.674Z,35.80
2017-09-19T10:29:35.217Z,33.30
2017-09-19T10:32:02.991Z,33.30
2017-09-19T10:34:30.805Z,34.70
2017-09-19T10:36:58.572Z,33.80
2017-09-19T10:39:26.398Z,34.20
2017-09-19T10:41:54.935Z,34.00
2017-09-19T10:44:22.700Z,34.00
2017-09-19T10:46:50.502Z,34.90
2017-09-19T10:49:18.266Z,35.00
2017-09-19T10:51:46.863Z,35.20
2017-09-19T10:54:14.990Z,35.20
2017-09-19T10:56:42.759Z,34.50
2017-09-19T10:59:10.555Z,34.00
2017-09-19T11:01:38.325Z,34.00
2017-09-19T11:04:06.154Z,35.00
2017-09-19T11:06:33.941Z,35.90
2017-09-19T11:09:01.712Z,33.30
2017-09-19T11:11:29.511Z,33.90
2017-09-19T11:13:57.317Z,34.80
2017-09-19T11:16:25.917Z,35.80
2017-09-19T11:18:53.691Z,35.80
2017-09-19T11:21:21.465Z,35.50
2017-09-19T11:23:49.263Z,34.40
2017-09-19T11:26:17.030Z,36.30
2017-09-19T11:28:44.853Z,34.50
2017-09-19T11:31:12.623Z,35.40
2017-09-19T11:33:40.392Z,34.50
2017-09-19T11:36:08.191Z,32.00
2017-09-19T11:38:36.725Z,33.80
2017-09-19T11:41:05.374Z,33.70
2017-09-19T11:43:33.135Z,33.70
2017-09-19T11:46:00.900Z,34.80
2017-09-19T11:48:28.698Z,35.90
2017-09-19T11:50:56.472Z,35.50
2017-09-19T11:53:24.308Z,35.20
2017-09-19T11:55:52.071Z,35.10
2017-09-19T11:58:19.826Z,35.20
2017-09-19T12:00:47.617Z,36.50
2017-09-19T12:03:15.383Z,36.30
2017-09-19T12:05:43.210Z,35.30
2017-09-19T12:08:10.978Z,38.00
2017-09-19T12:10:38.744Z,36.20
2017-09-19T12:13:06.543Z,36.40
2017-09-19T12:15:34.324Z,35.70
2017-09-19T12:18:02.921Z,35.80
2017-09-19T12:20:30.694Z,35.70
2017-09-19T12:22:58.467Z,35.80
2017-09-19T12:25:26.292Z,36.00
2017-09-19T12:27:54.818Z,35.50
2017-09-19T12:30:22.590Z,35.50
2017-09-19T12:32:50.387Z,36.70
2017-09-19T12:35:18.914Z,35.50
2017-09-19T12:37:46.696Z,35.60
2017-09-19T12:40:14.495Z,36.80
2017-09-19T12:42:42.272Z,37.10
2017-09-19T12:45:10.042Z,36.30
2017-09-19T12:47:37.839Z,36.40
2017-09-19T12:50:05.606Z,36.80
2017-09-19T12:52:33.371Z,35.40
2017-09-19T12:55:01.168Z,36.10
2017-09-19T12:57:29.704Z,37.20
2017-09-19T12:59:57.477Z,37.30
2017-09-19T13:02:25.279Z,36.10
2017-09-19T13:04:53.823Z,36.20
2017-09-19T13:07:21.584Z,36.10
2017-09-19T13:09:49.377Z,36.10
2017-09-19T13:12:17.916Z,35.50
2017-09-19T13:14:45.689Z,35.50
2017-09-19T13:17:13.481Z,35.60
2017-09-19T13:19:42.014Z,34.60
2017-09-19T13:22:09.822Z,34.60
2017-09-19T13:24:38.395Z,35.20
2017-09-19T13:27:06.917Z,35.40
2017-09-19T13:29:34.708Z,35.30
2017-09-19T13:32:14.404Z,35.60
2017-09-19T13:34:42.208Z,35.80
2017-09-19T13:37:09.976Z,36.30
2017-09-19T13:39:37.790Z,35.10
2017-09-19T13:42:05.593Z,36.50
2017-09-19T13:44:33.394Z,35.20
2017-09-19T13:47:01.951Z,36.20
2017-09-19T13:49:29.718Z,36.20
2017-09-19T13:51:57.540Z,37.10
2017-09-19T13:54:25.321Z,36.20
2017-09-19T13:56:53.082Z,37.00
2017-09-19T13:59:20.898Z,36.40
2017-09-19T14:01:48.677Z,36.40
2017-09-19T14:04:16.492Z,35.90
2017-09-19T14:06:44.264Z,35.90
2017-09-19T14:09:12.028Z,35.40
2017-09-19T14:11:40.597Z,34.00
2017-09-19T14:14:08.365Z,34.10
2017-09-19T14:16:36.188Z,34.80
2017-09-19T14:19:03.946Z,35.10
2017-09-19T14:21:31.747Z,34.80
2017-09-19T14:24:00.446Z,36.00
2017-09-19T14:26:28.994Z,34.90
2017-09-19T14:28:56.823Z,34.90
2017-09-19T14:31:24.611Z,35.70
2017-09-19T14:33:52.383Z,36.20
2017-09-19T14:36:20.180Z,34.40
2017-09-19T14:38:48.715Z,35.70
2017-09-19T14:41:16.535Z,35.60
2017-09-19T14:43:44.323Z,35.50
2017-09-19T14:46:12.091Z,36.10
2017-09-19T14:48:39.892Z,35.20
2017-09-19T14:51:07.664Z,34.70
2017-09-19T14:53:36.253Z,35.70
2017-09-19T14:56:04.792Z,36.20
2017-09-19T14:58:32.565Z,36.10
2017-09-19T15:01:00.364Z,36.90
2017-09-19T15:03:28.906Z,37.70
2017-09-19T15:05:56.732Z,37.70
2017-09-19T15:08:25.270Z,36.90
2017-09-19T15:10:53.816Z,36.70
2017-09-19T15:13:21.624Z,36.80
2017-09-19T15:15:49.406Z,38.40
2017-09-19T15:18:17.231Z,38.50
2017-09-19T15:20:44.998Z,37.60
2017-09-19T15:23:13.543Z,38.00
2017-09-19T15:25:41.338Z,37.90
2017-09-19T15:28:09.102Z,38.00
2017-09-19T15:30:37.695Z,39.20
2017-09-19T15:33:06.251Z,40.20
2017-09-19T15:35:34.022Z,40.20
2017-09-19T15:38:02.589Z,40.40
2017-09-19T15:40:30.369Z,39.80
2017-09-19T15:42:58.959Z,39.40
2017-09-19T15:45:27.515Z,41.50
2017-09-19T15:47:55.310Z,41.50
2017-09-19T15:50:23.120Z,43.30
2017-09-19T15:52:50.902Z,41.60
2017-09-19T15:55:18.730Z,41.40
2017-09-19T15:57:47.280Z,43.40
2017-09-19T16:00:15.070Z,43.30
2017-09-19T16:02:42.888Z,43.40
2017-09-19T16:05:11.420Z,44.70
2017-09-19T16:07:39.244Z,44.70
2017-09-19T16:10:07.785Z,46.60
2017-09-19T16:12:35.543Z,46.70
2017-09-19T16:15:03.362Z,45.60
2017-09-19T16:17:31.140Z,46.60
2017-09-19T16:19:58.969Z,47.20
2017-09-19T16:22:27.517Z,47.70
2017-09-19T16:24:55.300Z,47.70
2017-09-19T16:27:23.879Z,49.40
2017-09-19T16:29:52.413Z,49.00
2017-09-19T16:32:20.248Z,48.90
2017-09-19T16:34:48.027Z,49.40
2017-09-19T16:37:15.832Z,49.20
2017-09-19T16:39:43.634Z,50.60
2017-09-19T16:42:11.414Z,51.90
2017-09-19T16:44:39.234Z,51.40
2017-09-19T16:47:07.784Z,52.00
2017-09-19T16:49:35.559Z,52.10
2017-09-19T16:52:03.371Z,53.20
2017-09-19T16:54:31.141Z,53.20
2017-09-19T16:56:58.974Z,54.80
2017-09-19T16:59:27.524Z,56.70
2017-09-19T17:01:55.286Z,56.70
2017-09-19T17:04:23.086Z,57.50
2017-09-19T17:06:50.862Z,59.50
2017-09-19T17:09:18.735Z,62.30
2017-09-19T17:11:47.265Z,63.10
2017-09-19T17:14:15.040Z,63.10
2017-09-19T17:16:43.613Z,68.80
2017-09-19T17:19:12.151Z,69.20
2017-09-19T17:21:39.989Z,69.20
2017-09-19T17:24:07.773Z,70.50
2017-09-19T17:26:35.575Z,78.30
2017-09-19T17:29:03.406Z,81.00
2017-09-19T17:31:31.207Z,85.70
2017-09-19T17:33:59.824Z,89.60
2017-09-19T17:36:27.607Z,89.50
2017-09-19T17:38:55.374Z,90.50
2017-09-19T17:41:23.181Z,90.30
2017-09-19T17:43:51.728Z,90.90
2017-09-19T17:46:19.562Z,90.80
2017-09-19T17:48:47.342Z,90.00
2017-09-19T17:51:15.122Z,92.20
2017-09-19T17:53:42.935Z,92.50
2017-09-19T17:56:10.709Z,93.10
2017-09-19T17:58:39.331Z,93.70
2017-09-19T18:01:07.120Z,94.00
2017-09-19T18:03:35.670Z,94.80
2017-09-19T18:06:03.517Z,94.90
2017-09-19T18:08:31.301Z,95.30
2017-09-19T18:10:59.117Z,95.30
2017-09-19T18:13:26.895Z,95.30
2017-09-19T18:15:54.735Z,94.50
2017-09-19T18:18:22.568Z,95.00
2017-09-19T18:20:51.117Z,94.50
2017-09-19T18:23:18.945Z,94.50
2017-09-19T18:25:46.750Z,94.90
2017-09-19T18:28:14.628Z,95.20
2017-09-19T18:30:42.415Z,95.20
2017-09-19T18:33:10.220Z,96.00
2017-09-19T18:35:38.069Z,95.50
2017-09-19T18:38:05.853Z,96.30
2017-09-19T18:40:33.697Z,96.10
2017-09-19T18:43:01.544Z,96.20
2017-09-19T18:45:29.327Z,96.30
2017-09-19T18:47:57.164Z,97.00
2017-09-19T18:50:24.939Z,97.20
2017-09-19T18:52:52.789Z,96.90
2017-09-19T18:55:20.572Z,96.60
2017-09-19T18:57:48.350Z,96.80
2017-09-19T19:00:16.183Z,97.00
2017-09-19T19:02:43.994Z,97.50
2017-09-19T19:05:11.882Z,97.90
2017-09-19T19:07:39.677Z,98.20
2017-09-19T19:10:07.495Z,98.60
2017-09-19T19:12:35.323Z,98.70
2017-09-19T19:15:03.109Z,98.70
2017-09-19T19:17:30.944Z,98.70
2017-09-19T19:19:58.749Z,98.70
2017-09-19T19:22:26.536Z,99.00
2017-09-19T19:24:54.366Z,99.20
2017-09-19T19:27:22.162Z,99.80
2017-09-19T19:29:50.024Z,99.90
2017-09-19T19:32:17.830Z,99.90
2017-09-19T19:34:45.619Z,99.90
2017-09-19T19:37:13.455Z,99.90
2017-09-19T19:39:41.289Z,99.90
2017-09-19T19:42:09.237Z,99.90
2017-09-19T19:44:37.791Z,99.90
2017-09-19T19:47:05.596Z,99.90
2017-09-19T19:49:33.426Z,99.90
2017-09-19T19:52:01.981Z,99.90
2017-09-19T19:54:29.845Z,99.90
2017-09-19T19:56:57.620Z,99.90
2017-09-19T19:59:25.395Z,99.90
2017-09-19T20:01:54.025Z,99.90
2017-09-19T20:04:21.808Z,99.90
2017-09-19T20:06:49.665Z,99.90
2017-09-19T20:09:17.493Z,99.90
2017-09-19T20:11:45.288Z,99.90
2017-09-19T20:14:13.096Z,99.90
2017-09-19T20:16:41.657Z,99.90
2017-09-19T20:19:09.498Z,99.90
2017-09-19T20:21:37.265Z,99.90
2017-09-19T20:24:05.029Z,99.90
2017-09-19T20:26:32.836Z,99.90
2017-09-19T20:29:01.391Z,99.90
2017-09-19T20:31:29.814Z,99.90
2017-09-19T20:33:57.595Z,99.90
2017-09-19T20:36:25.378Z,99.90
2017-09-19T20:38:53.201Z,99.90
2017-09-19T20:41:20.987Z,99.90
2017-09-19T20:43:49.643Z,99.90
2017-09-19T20:46:17.423Z,99.90
2017-09-19T20:48:45.217Z,99.90
2017-09-19T20:51:13.033Z,99.90
2017-09-19T20:53:40.806Z,99.90
2017-09-19T20:56:08.674Z,99.90
2017-09-19T20:58:36.456Z,99.90
2017-09-19T21:01:04.221Z,99.90
2017-09-19T21:03:37.618Z,99.90
2017-09-19T21:06:10.976Z,99.90
2017-09-19T21:08:44.480Z,99.90
2017-09-19T21:11:17.858Z,99.90
2017-09-19T21:13:51.409Z,99.90
2017-09-19T21:16:24.732Z,99.90
2017-09-19T21:18:58.082Z,99.90
2017-09-19T21:21:25.873Z,99.90
2017-09-19T21:23:54.486Z,99.90
2017-09-19T21:26:22.269Z,99.90
2017-09-19T21:28:50.045Z,99.90
2017-09-19T21:31:17.885Z,99.90
2017-09-19T21:33:45.668Z,99.90
2017-09-19T21:36:13.499Z,99.90
2017-09-19T21:38:41.281Z,99.90
2017-09-19T21:41:09.080Z,99.90
2017-09-19T21:43:37.663Z,99.90
2017-09-19T21:46:06.214Z,99.90
2017-09-19T21:48:34.052Z,99.90
2017-09-19T21:51:01.835Z,99.90
2017-09-19T21:53:29.623Z,99.90
2017-09-19T21:55:57.433Z,99.90
2017-09-19T21:58:25.199Z,99.90
2017-09-19T22:00:53.041Z,99.90
2017-09-19T22:03:21.595Z,99.90
2017-09-19T22:05:50.150Z,99.90
2017-09-19T22:08:17.951Z,99.90
2017-09-19T22:10:46.502Z,99.90
2017-09-19T22:13:14.347Z,99.90
2017-09-19T22:15:42.133Z,99.90
2017-09-19T22:18:09.912Z,99.90
2017-09-19T22:20:38.525Z,99.90
2017-09-19T22:23:06.335Z,99.90
2017-09-19T22:25:34.163Z,99.90
2017-09-19T22:28:01.942Z,99.90
2017-09-19T22:30:29.717Z,99.90
2017-09-19T22:32:57.539Z,99.90
2017-09-19T22:35:25.335Z,99.90
2017-09-19T22:37:53.162Z,99.90
2017-09-19T22:40:20.936Z,99.90
2017-09-19T22:42:48.713Z,99.90
2017-09-19T22:45:16.522Z,99.90
2017-09-19T22:47:45.067Z,99.90
2017-09-19T22:50:12.891Z,99.90
2017-09-19T22:52:40.711Z,99.90
2017-09-19T22:55:08.483Z,99.90
2017-09-19T22:57:36.284Z,99.90
2017-09-19T23:00:04.072Z,99.90
2017-09-19T23:02:31.907Z,99.90
2017-09-19T23:05:00.459Z,99.90
2017-09-19T23:07:28.224Z,99.90
2017-09-19T23:09:56.820Z,99.90
2017-09-19T23:12:24.591Z,99.90
2017-09-19T23:14:52.458Z,99.90
2017-09-19T23:17:20.249Z,99.90
2017-09-19T23:19:48.017Z,99.90
2017-09-19T23:22:15.820Z,99.90
2017-09-19T23:24:44.377Z,99.90
2017-09-19T23:27:12.225Z,99.90
2017-09-19T23:29:40.003Z,99.90
2017-09-19T23:32:08.543Z,99.90
2017-09-19T23:34:36.425Z,99.90
2017-09-19T23:37:04.203Z,99.90
2017-09-19T23:39:32.026Z,99.90
2017-09-19T23:41:59.797Z,99.90
2017-09-19T23:44:27.586Z,99.90
2017-09-19T23:46:55.379Z,99.90
2017-09-19T23:49:23.911Z,99.90
2017-09-19T23:51:51.738Z,99.90
2017-09-19T23:54:19.515Z,99.90
2017-09-19T23:56:47.279Z,99.90
2017-09-19T23:59:15.101Z,99.90
